CYVR

Vancouver International Airport

Vancouver, , Canada
METAR CYVR 231300Z 16006KT 20SM FEW012 SCT026 OVC059 12/11 A3007 RMK SC1SC2SC5 SLP185
Observed Flight Rules
Sep-23 @ 13:00 UTC (an hour ago) Visual Flight Rules
Wind Visibility Clouds
160° at 6 knots 20 miles
Temperatures Readings
Current 12°C / 54°F
Dewpoint 11°C / 52°F
Humidity 94%
Altimeter 30.07" Hg
Pressure 1018.5 hPa
Elevation 2
METAR CYVR 231300Z 16006KT 20SM FEW012 SCT026 OVC059 12/11 A3007 RMK SC1SC2SC5 SLP185
Observed Flight Rules
Sep-23 @ 13:00 UTC
(an hour ago)
VFR
Wind Visibility
160° at 6 knots 20 miles
Clouds
Temperature Dewpoint
12°C / 54°F 11°C / 52°F
Humidity Altimeter Pressure
94% 30.07" Hg 1018.5 hPa